<?xml version="1.0" encoding="UTF-8" standalone="no" ?>
<gpx xmlns="http://www.topografix.com/GPX/1/1" xmlns:xsi="http://www.w3.org/2001/XMLSchema-instance" xsi:schemaLocation="http://www.topografix.com/GPX/1/1 http://www.topografix.com/GPX/1/1/gpx.xsd" version="1.1" creator="VisuGPX - https://www.visugpx.com">
  <metadata>
    <name>Saillon, Ecône, Riddes</name>
  </metadata>
  <trk>
    <name><![CDATA[Saillon, Ecône, Riddes_1]]></name>
    <trkseg>
      <trkpt lat="46.17478" lon="7.19697">
        <ele>467.87</ele>
        <time>2020-06-25T11:30:00.000Z</time>
      </trkpt>
      <trkpt lat="46.1747" lon="7.19681">
        <ele>467.85</ele>
        <time>2020-06-25T11:30:11.959Z</time>
      </trkpt>
      <trkpt lat="46.17456" lon="7.19656">
        <ele>468.11</ele>
        <time>2020-06-25T11:30:34.265Z</time>
      </trkpt>
      <trkpt lat="46.17431" lon="7.1961">
        <ele>467.88</ele>
        <time>2020-06-25T11:31:07.593Z</time>
      </trkpt>
      <trkpt lat="46.17416" lon="7.19582">
        <ele>467.36</ele>
        <time>2020-06-25T11:31:14.748Z</time>
      </trkpt>
      <trkpt lat="46.17411" lon="7.1957">
        <ele>467.17</ele>
        <time>2020-06-25T11:31:17.633Z</time>
      </trkpt>
      <trkpt lat="46.17407" lon="7.19562">
        <ele>467.22</ele>
        <time>2020-06-25T11:31:24.186Z</time>
      </trkpt>
      <trkpt lat="46.17401" lon="7.19554">
        <ele>467.18</ele>
        <time>2020-06-25T11:31:30.982Z</time>
      </trkpt>
      <trkpt lat="46.17393" lon="7.19544">
        <ele>467.01</ele>
        <time>2020-06-25T11:31:34.266Z</time>
      </trkpt>
      <trkpt lat="46.17383" lon="7.19533">
        <ele>466.85</ele>
        <time>2020-06-25T11:31:38.334Z</time>
      </trkpt>
      <trkpt lat="46.17356" lon="7.19503">
        <ele>466.32</ele>
        <time>2020-06-25T11:31:48.974Z</time>
      </trkpt>
      <trkpt lat="46.17344" lon="7.1949">
        <ele>466.18</ele>
        <time>2020-06-25T11:31:54.050Z</time>
      </trkpt>
      <trkpt lat="46.17331" lon="7.19476">
        <ele>465.95</ele>
        <time>2020-06-25T11:31:59.202Z</time>
      </trkpt>
      <trkpt lat="46.17314" lon="7.19458">
        <ele>466.03</ele>
        <time>2020-06-25T11:32:18.742Z</time>
      </trkpt>
      <trkpt lat="46.17301" lon="7.19444">
        <ele>466.01</ele>
        <time>2020-06-25T11:32:32.982Z</time>
      </trkpt>
      <trkpt lat="46.17298" lon="7.1944">
        <ele>466.16</ele>
        <time>2020-06-25T11:32:38.488Z</time>
      </trkpt>
      <trkpt lat="46.17267" lon="7.19407">
        <ele>466.28</ele>
        <time>2020-06-25T11:33:13.958Z</time>
      </trkpt>
      <trkpt lat="46.17239" lon="7.19376">
        <ele>466.39</ele>
        <time>2020-06-25T11:33:46.454Z</time>
      </trkpt>
      <trkpt lat="46.17211" lon="7.19345">
        <ele>466.49</ele>
        <time>2020-06-25T11:34:18.863Z</time>
      </trkpt>
      <trkpt lat="46.17185" lon="7.19318">
        <ele>466.25</ele>
        <time>2020-06-25T11:34:29.972Z</time>
      </trkpt>
      <trkpt lat="46.17182" lon="7.19315">
        <ele>466.34</ele>
        <time>2020-06-25T11:34:34.190Z</time>
      </trkpt>
      <trkpt lat="46.1718" lon="7.19314">
        <ele>466.49</ele>
        <time>2020-06-25T11:34:38.026Z</time>
      </trkpt>
      <trkpt lat="46.17178" lon="7.19315">
        <ele>466.61</ele>
        <time>2020-06-25T11:34:41.489Z</time>
      </trkpt>
      <trkpt lat="46.17177" lon="7.19317">
        <ele>466.59</ele>
        <time>2020-06-25T11:34:42.049Z</time>
      </trkpt>
      <trkpt lat="46.17151" lon="7.19367">
        <ele>466.75</ele>
        <time>2020-06-25T11:35:22.147Z</time>
      </trkpt>
      <trkpt lat="46.1714" lon="7.19388">
        <ele>466.75</ele>
        <time>2020-06-25T11:35:38.462Z</time>
      </trkpt>
      <trkpt lat="46.17128" lon="7.19415">
        <ele>466.82</ele>
        <time>2020-06-25T11:35:58.930Z</time>
      </trkpt>
      <trkpt lat="46.1712" lon="7.19431">
        <ele>466.81</ele>
        <time>2020-06-25T11:36:11.022Z</time>
      </trkpt>
      <trkpt lat="46.17107" lon="7.19458">
        <ele>466.9</ele>
        <time>2020-06-25T11:36:32.163Z</time>
      </trkpt>
      <trkpt lat="46.17107" lon="7.19458">
        <ele>466.9</ele>
        <time>2020-06-25T11:36:32.163Z</time>
      </trkpt>
      <trkpt lat="46.17098" lon="7.19476">
        <ele>466.99</ele>
        <time>2020-06-25T11:36:46.698Z</time>
      </trkpt>
      <trkpt lat="46.17096" lon="7.19479">
        <ele>467.13</ele>
        <time>2020-06-25T11:36:51.167Z</time>
      </trkpt>
      <trkpt lat="46.17092" lon="7.19485">
        <ele>467.15</ele>
        <time>2020-06-25T11:36:56.496Z</time>
      </trkpt>
      <trkpt lat="46.17054" lon="7.19452">
        <ele>466.69</ele>
        <time>2020-06-25T11:37:11.294Z</time>
      </trkpt>
      <trkpt lat="46.17031" lon="7.19432">
        <ele>466.49</ele>
        <time>2020-06-25T11:37:20.614Z</time>
      </trkpt>
      <trkpt lat="46.17031" lon="7.19431">
        <ele>466.49</ele>
        <time>2020-06-25T11:37:21.233Z</time>
      </trkpt>
      <trkpt lat="46.17001" lon="7.19404">
        <ele>466.28</ele>
        <time>2020-06-25T11:37:50.223Z</time>
      </trkpt>
      <trkpt lat="46.16987" lon="7.19393">
        <ele>466.26</ele>
        <time>2020-06-25T11:38:04.214Z</time>
      </trkpt>
      <trkpt lat="46.16974" lon="7.19381">
        <ele>466.24</ele>
        <time>2020-06-25T11:38:17.750Z</time>
      </trkpt>
      <trkpt lat="46.16968" lon="7.19375">
        <ele>466.44</ele>
        <time>2020-06-25T11:38:26.468Z</time>
      </trkpt>
      <trkpt lat="46.16955" lon="7.19364">
        <ele>466.23</ele>
        <time>2020-06-25T11:38:31.270Z</time>
      </trkpt>
      <trkpt lat="46.16941" lon="7.19351">
        <ele>466.33</ele>
        <time>2020-06-25T11:38:47.030Z</time>
      </trkpt>
      <trkpt lat="46.16924" lon="7.19337">
        <ele>466.44</ele>
        <time>2020-06-25T11:39:05.490Z</time>
      </trkpt>
      <trkpt lat="46.16908" lon="7.19322">
        <ele>466.38</ele>
        <time>2020-06-25T11:39:21.773Z</time>
      </trkpt>
      <trkpt lat="46.16894" lon="7.19311">
        <ele>466.2</ele>
        <time>2020-06-25T11:39:27.028Z</time>
      </trkpt>
      <trkpt lat="46.16865" lon="7.19284">
        <ele>466.47</ele>
        <time>2020-06-25T11:40:00.284Z</time>
      </trkpt>
      <trkpt lat="46.1686" lon="7.19279">
        <ele>466.39</ele>
        <time>2020-06-25T11:40:02.242Z</time>
      </trkpt>
      <trkpt lat="46.16849" lon="7.19267">
        <ele>466.15</ele>
        <time>2020-06-25T11:40:06.451Z</time>
      </trkpt>
      <trkpt lat="46.16839" lon="7.19255">
        <ele>466.25</ele>
        <time>2020-06-25T11:40:18.966Z</time>
      </trkpt>
      <trkpt lat="46.16827" lon="7.19238">
        <ele>466.19</ele>
        <time>2020-06-25T11:40:33.227Z</time>
      </trkpt>
      <trkpt lat="46.16818" lon="7.19225">
        <ele>466.15</ele>
        <time>2020-06-25T11:40:44.094Z</time>
      </trkpt>
      <trkpt lat="46.16808" lon="7.19207">
        <ele>466.16</ele>
        <time>2020-06-25T11:40:58.475Z</time>
      </trkpt>
      <trkpt lat="46.16798" lon="7.19189">
        <ele>465.91</ele>
        <time>2020-06-25T11:41:03.460Z</time>
      </trkpt>
      <trkpt lat="46.16789" lon="7.19169">
        <ele>466</ele>
        <time>2020-06-25T11:41:19.016Z</time>
      </trkpt>
      <trkpt lat="46.1678" lon="7.19146">
        <ele>465.82</ele>
        <time>2020-06-25T11:41:25.165Z</time>
      </trkpt>
      <trkpt lat="46.16774" lon="7.1913">
        <ele>466.09</ele>
        <time>2020-06-25T11:41:39.192Z</time>
      </trkpt>
      <trkpt lat="46.16773" lon="7.19131">
        <ele>466.02</ele>
        <time>2020-06-25T11:41:39.442Z</time>
      </trkpt>
      <trkpt lat="46.16767" lon="7.19136">
        <ele>466.02</ele>
        <time>2020-06-25T11:41:45.640Z</time>
      </trkpt>
      <trkpt lat="46.16766" lon="7.19138">
        <ele>466.02</ele>
        <time>2020-06-25T11:41:47.168Z</time>
      </trkpt>
      <trkpt lat="46.16757" lon="7.19147">
        <ele>466.09</ele>
        <time>2020-06-25T11:41:57.573Z</time>
      </trkpt>
      <trkpt lat="46.16735" lon="7.19172">
        <ele>466.26</ele>
        <time>2020-06-25T11:42:24.096Z</time>
      </trkpt>
      <trkpt lat="46.16713" lon="7.19195">
        <ele>466.21</ele>
        <time>2020-06-25T11:42:47.731Z</time>
      </trkpt>
      <trkpt lat="46.16713" lon="7.19196">
        <ele>466.21</ele>
        <time>2020-06-25T11:42:48.351Z</time>
      </trkpt>
      <trkpt lat="46.1669" lon="7.19221">
        <ele>466.15</ele>
        <time>2020-06-25T11:43:13.311Z</time>
      </trkpt>
      <trkpt lat="46.16676" lon="7.19237">
        <ele>466.28</ele>
        <time>2020-06-25T11:43:30.427Z</time>
      </trkpt>
      <trkpt lat="46.16659" lon="7.19255">
        <ele>466.18</ele>
        <time>2020-06-25T11:43:48.010Z</time>
      </trkpt>
      <trkpt lat="46.16642" lon="7.19274">
        <ele>466.41</ele>
        <time>2020-06-25T11:44:09.334Z</time>
      </trkpt>
      <trkpt lat="46.16615" lon="7.19304">
        <ele>466.44</ele>
        <time>2020-06-25T11:44:40.064Z</time>
      </trkpt>
      <trkpt lat="46.16609" lon="7.19286">
        <ele>466.3</ele>
        <time>2020-06-25T11:44:44.697Z</time>
      </trkpt>
      <trkpt lat="46.16591" lon="7.19229">
        <ele>466.22</ele>
        <time>2020-06-25T11:45:22.448Z</time>
      </trkpt>
      <trkpt lat="46.16587" lon="7.19216">
        <ele>466.2</ele>
        <time>2020-06-25T11:45:30.997Z</time>
      </trkpt>
      <trkpt lat="46.16587" lon="7.19215">
        <ele>466.2</ele>
        <time>2020-06-25T11:45:31.617Z</time>
      </trkpt>
      <trkpt lat="46.16562" lon="7.19136">
        <ele>466.18</ele>
        <time>2020-06-25T11:46:25.165Z</time>
      </trkpt>
      <trkpt lat="46.16552" lon="7.19105">
        <ele>465.94</ele>
        <time>2020-06-25T11:46:33.094Z</time>
      </trkpt>
      <trkpt lat="46.16542" lon="7.19075">
        <ele>466.14</ele>
        <time>2020-06-25T11:46:55.505Z</time>
      </trkpt>
      <trkpt lat="46.16533" lon="7.19046">
        <ele>465.87</ele>
        <time>2020-06-25T11:47:02.670Z</time>
      </trkpt>
      <trkpt lat="46.16513" lon="7.1898">
        <ele>465.79</ele>
        <time>2020-06-25T11:47:46.241Z</time>
      </trkpt>
      <trkpt lat="46.16502" lon="7.18946">
        <ele>465.84</ele>
        <time>2020-06-25T11:48:09.912Z</time>
      </trkpt>
      <trkpt lat="46.16486" lon="7.18895">
        <ele>465.68</ele>
        <time>2020-06-25T11:48:42.543Z</time>
      </trkpt>
      <trkpt lat="46.16478" lon="7.1887">
        <ele>465.9</ele>
        <time>2020-06-25T11:49:01.624Z</time>
      </trkpt>
      <trkpt lat="46.1647" lon="7.18845">
        <ele>465.64</ele>
        <time>2020-06-25T11:49:07.726Z</time>
      </trkpt>
      <trkpt lat="46.16451" lon="7.18783">
        <ele>465.64</ele>
        <time>2020-06-25T11:49:49.739Z</time>
      </trkpt>
      <trkpt lat="46.16443" lon="7.18757">
        <ele>465.57</ele>
        <time>2020-06-25T11:50:06.458Z</time>
      </trkpt>
      <trkpt lat="46.16431" lon="7.18723">
        <ele>465.41</ele>
        <time>2020-06-25T11:50:28.098Z</time>
      </trkpt>
      <trkpt lat="46.16414" lon="7.18667">
        <ele>465.41</ele>
        <time>2020-06-25T11:51:05.987Z</time>
      </trkpt>
      <trkpt lat="46.16405" lon="7.18637">
        <ele>465.29</ele>
        <time>2020-06-25T11:51:24.724Z</time>
      </trkpt>
      <trkpt lat="46.16389" lon="7.18591">
        <ele>465.39</ele>
        <time>2020-06-25T11:51:57.463Z</time>
      </trkpt>
      <trkpt lat="46.16326" lon="7.18661">
        <ele>465.35</ele>
        <time>2020-06-25T11:53:08.044Z</time>
      </trkpt>
      <trkpt lat="46.16326" lon="7.18661">
        <ele>465.35</ele>
        <time>2020-06-25T11:53:08.044Z</time>
      </trkpt>
      <trkpt lat="46.16314" lon="7.18674">
        <ele>465.31</ele>
        <time>2020-06-25T11:53:20.940Z</time>
      </trkpt>
      <trkpt lat="46.16298" lon="7.18692">
        <ele>465.44</ele>
        <time>2020-06-25T11:53:40.220Z</time>
      </trkpt>
      <trkpt lat="46.16281" lon="7.18711">
        <ele>465.5</ele>
        <time>2020-06-25T11:53:59.959Z</time>
      </trkpt>
      <trkpt lat="46.16238" lon="7.18758">
        <ele>465.63</ele>
        <time>2020-06-25T11:54:49.303Z</time>
      </trkpt>
      <trkpt lat="46.16236" lon="7.18761">
        <ele>465.58</ele>
        <time>2020-06-25T11:54:50.184Z</time>
      </trkpt>
      <trkpt lat="46.16222" lon="7.18776">
        <ele>465.59</ele>
        <time>2020-06-25T11:55:05.865Z</time>
      </trkpt>
      <trkpt lat="46.16194" lon="7.18807">
        <ele>465.85</ele>
        <time>2020-06-25T11:55:39.719Z</time>
      </trkpt>
      <trkpt lat="46.16194" lon="7.18807">
        <ele>465.85</ele>
        <time>2020-06-25T11:55:39.719Z</time>
      </trkpt>
      <trkpt lat="46.16176" lon="7.18827">
        <ele>466.1</ele>
        <time>2020-06-25T11:56:02.320Z</time>
      </trkpt>
      <trkpt lat="46.16161" lon="7.18843">
        <ele>466.76</ele>
        <time>2020-06-25T11:56:27.009Z</time>
      </trkpt>
      <trkpt lat="46.16118" lon="7.1889">
        <ele>469.39</ele>
        <time>2020-06-25T11:57:50.706Z</time>
      </trkpt>
      <trkpt lat="46.16118" lon="7.18891">
        <ele>469.39</ele>
        <time>2020-06-25T11:57:51.326Z</time>
      </trkpt>
      <trkpt lat="46.16078" lon="7.18936">
        <ele>472.01</ele>
        <time>2020-06-25T11:59:11.535Z</time>
      </trkpt>
      <trkpt lat="46.16071" lon="7.18943">
        <ele>472.47</ele>
        <time>2020-06-25T11:59:25.217Z</time>
      </trkpt>
      <trkpt lat="46.16068" lon="7.18946">
        <ele>472.71</ele>
        <time>2020-06-25T11:59:31.584Z</time>
      </trkpt>
      <trkpt lat="46.16057" lon="7.18958">
        <ele>473.72</ele>
        <time>2020-06-25T11:59:57.031Z</time>
      </trkpt>
      <trkpt lat="46.16039" lon="7.18978">
        <ele>474.89</ele>
        <time>2020-06-25T12:00:32.920Z</time>
      </trkpt>
      <trkpt lat="46.15963" lon="7.19062">
        <ele>477.41</ele>
        <time>2020-06-25T12:02:25.772Z</time>
      </trkpt>
      <trkpt lat="46.15941" lon="7.19086">
        <ele>477.08</ele>
        <time>2020-06-25T12:02:34.784Z</time>
      </trkpt>
      <trkpt lat="46.15933" lon="7.19095">
        <ele>476.91</ele>
        <time>2020-06-25T12:02:37.905Z</time>
      </trkpt>
      <trkpt lat="46.15882" lon="7.19152">
        <ele>476.57</ele>
        <time>2020-06-25T12:03:31.298Z</time>
      </trkpt>
      <trkpt lat="46.15882" lon="7.19152">
        <ele>476.57</ele>
        <time>2020-06-25T12:03:31.298Z</time>
      </trkpt>
      <trkpt lat="46.15863" lon="7.19173">
        <ele>476.24</ele>
        <time>2020-06-25T12:03:38.939Z</time>
      </trkpt>
      <trkpt lat="46.15831" lon="7.19208">
        <ele>475.57</ele>
        <time>2020-06-25T12:03:51.303Z</time>
      </trkpt>
      <trkpt lat="46.15823" lon="7.19216">
        <ele>475.4</ele>
        <time>2020-06-25T12:03:54.273Z</time>
      </trkpt>
      <trkpt lat="46.15794" lon="7.19248">
        <ele>473.38</ele>
        <time>2020-06-25T12:04:01.912Z</time>
      </trkpt>
      <trkpt lat="46.15783" lon="7.19261">
        <ele>472.38</ele>
        <time>2020-06-25T12:04:04.881Z</time>
      </trkpt>
      <trkpt lat="46.15773" lon="7.19272">
        <ele>471.54</ele>
        <time>2020-06-25T12:04:07.506Z</time>
      </trkpt>
      <trkpt lat="46.15766" lon="7.19279">
        <ele>470.86</ele>
        <time>2020-06-25T12:04:09.285Z</time>
      </trkpt>
      <trkpt lat="46.15762" lon="7.19283">
        <ele>470.44</ele>
        <time>2020-06-25T12:04:10.301Z</time>
      </trkpt>
      <trkpt lat="46.15762" lon="7.19283">
        <ele>470.44</ele>
        <time>2020-06-25T12:04:10.301Z</time>
      </trkpt>
      <trkpt lat="46.15758" lon="7.19286">
        <ele>470.02</ele>
        <time>2020-06-25T12:04:11.242Z</time>
      </trkpt>
      <trkpt lat="46.15749" lon="7.19292">
        <ele>469.5</ele>
        <time>2020-06-25T12:04:13.368Z</time>
      </trkpt>
      <trkpt lat="46.15742" lon="7.19295">
        <ele>469.1</ele>
        <time>2020-06-25T12:04:14.903Z</time>
      </trkpt>
      <trkpt lat="46.15736" lon="7.19295">
        <ele>468.67</ele>
        <time>2020-06-25T12:04:16.156Z</time>
      </trkpt>
      <trkpt lat="46.15729" lon="7.19293">
        <ele>468.45</ele>
        <time>2020-06-25T12:04:18.031Z</time>
      </trkpt>
      <trkpt lat="46.15724" lon="7.19291">
        <ele>468.1</ele>
        <time>2020-06-25T12:04:19.114Z</time>
      </trkpt>
      <trkpt lat="46.1572" lon="7.19287">
        <ele>468.09</ele>
        <time>2020-06-25T12:04:23.335Z</time>
      </trkpt>
      <trkpt lat="46.15713" lon="7.19278">
        <ele>467.71</ele>
        <time>2020-06-25T12:04:25.571Z</time>
      </trkpt>
      <trkpt lat="46.15711" lon="7.19274">
        <ele>467.48</ele>
        <time>2020-06-25T12:04:26.285Z</time>
      </trkpt>
      <trkpt lat="46.15701" lon="7.19284">
        <ele>467.48</ele>
        <time>2020-06-25T12:04:37.169Z</time>
      </trkpt>
      <trkpt lat="46.15688" lon="7.19296">
        <ele>465.98</ele>
        <time>2020-06-25T12:04:40.391Z</time>
      </trkpt>
      <trkpt lat="46.15683" lon="7.19301">
        <ele>466.13</ele>
        <time>2020-06-25T12:04:47.421Z</time>
      </trkpt>
      <trkpt lat="46.15693" lon="7.19322">
        <ele>466.08</ele>
        <time>2020-06-25T12:05:02.558Z</time>
      </trkpt>
      <trkpt lat="46.15729" lon="7.19396">
        <ele>466.1</ele>
        <time>2020-06-25T12:05:58.765Z</time>
      </trkpt>
      <trkpt lat="46.15734" lon="7.19407">
        <ele>466.05</ele>
        <time>2020-06-25T12:06:06.286Z</time>
      </trkpt>
      <trkpt lat="46.1571" lon="7.19431">
        <ele>466.2</ele>
        <time>2020-06-25T12:06:33.698Z</time>
      </trkpt>
      <trkpt lat="46.1571" lon="7.19431">
        <ele>466.2</ele>
        <time>2020-06-25T12:06:33.698Z</time>
      </trkpt>
      <trkpt lat="46.15701" lon="7.19441">
        <ele>466.35</ele>
        <time>2020-06-25T12:06:45.258Z</time>
      </trkpt>
      <trkpt lat="46.15663" lon="7.19479">
        <ele>465.57</ele>
        <time>2020-06-25T12:06:59.463Z</time>
      </trkpt>
      <trkpt lat="46.15646" lon="7.19494">
        <ele>465.64</ele>
        <time>2020-06-25T12:07:17.882Z</time>
      </trkpt>
      <trkpt lat="46.15636" lon="7.19504">
        <ele>465.46</ele>
        <time>2020-06-25T12:07:21.717Z</time>
      </trkpt>
      <trkpt lat="46.15622" lon="7.1952">
        <ele>465.48</ele>
        <time>2020-06-25T12:07:37.859Z</time>
      </trkpt>
      <trkpt lat="46.15607" lon="7.19534">
        <ele>465.85</ele>
        <time>2020-06-25T12:07:57.582Z</time>
      </trkpt>
      <trkpt lat="46.15599" lon="7.19542">
        <ele>465.77</ele>
        <time>2020-06-25T12:08:00.925Z</time>
      </trkpt>
      <trkpt lat="46.15595" lon="7.19547">
        <ele>465.72</ele>
        <time>2020-06-25T12:08:02.712Z</time>
      </trkpt>
      <trkpt lat="46.1558" lon="7.19562">
        <ele>465.62</ele>
        <time>2020-06-25T12:08:17.774Z</time>
      </trkpt>
      <trkpt lat="46.15516" lon="7.19626">
        <ele>465.55</ele>
        <time>2020-06-25T12:09:26.485Z</time>
      </trkpt>
      <trkpt lat="46.15503" lon="7.19639">
        <ele>465.68</ele>
        <time>2020-06-25T12:09:41.787Z</time>
      </trkpt>
      <trkpt lat="46.15486" lon="7.19657">
        <ele>465.59</ele>
        <time>2020-06-25T12:09:59.491Z</time>
      </trkpt>
      <trkpt lat="46.15463" lon="7.19681">
        <ele>465.56</ele>
        <time>2020-06-25T12:10:24.478Z</time>
      </trkpt>
      <trkpt lat="46.15463" lon="7.19681">
        <ele>465.56</ele>
        <time>2020-06-25T12:10:24.478Z</time>
      </trkpt>
      <trkpt lat="46.15462" lon="7.19681">
        <ele>465.53</ele>
        <time>2020-06-25T12:10:24.743Z</time>
      </trkpt>
      <trkpt lat="46.15442" lon="7.19701">
        <ele>465.59</ele>
        <time>2020-06-25T12:10:47.014Z</time>
      </trkpt>
      <trkpt lat="46.15425" lon="7.19718">
        <ele>465.43</ele>
        <time>2020-06-25T12:10:54.165Z</time>
      </trkpt>
      <trkpt lat="46.15416" lon="7.19729">
        <ele>465.49</ele>
        <time>2020-06-25T12:11:05.231Z</time>
      </trkpt>
      <trkpt lat="46.15407" lon="7.19737">
        <ele>465.57</ele>
        <time>2020-06-25T12:11:15.392Z</time>
      </trkpt>
      <trkpt lat="46.15395" lon="7.19748">
        <ele>465.78</ele>
        <time>2020-06-25T12:11:30.101Z</time>
      </trkpt>
      <trkpt lat="46.15361" lon="7.19782">
        <ele>465.92</ele>
        <time>2020-06-25T12:12:08.291Z</time>
      </trkpt>
      <trkpt lat="46.15348" lon="7.19796">
        <ele>465.82</ele>
        <time>2020-06-25T12:12:21.550Z</time>
      </trkpt>
      <trkpt lat="46.15342" lon="7.19802">
        <ele>465.7</ele>
        <time>2020-06-25T12:12:23.805Z</time>
      </trkpt>
      <trkpt lat="46.1534" lon="7.19804">
        <ele>465.78</ele>
        <time>2020-06-25T12:12:26.920Z</time>
      </trkpt>
      <trkpt lat="46.15336" lon="7.19804">
        <ele>465.86</ele>
        <time>2020-06-25T12:12:31.301Z</time>
      </trkpt>
      <trkpt lat="46.15334" lon="7.19803">
        <ele>465.83</ele>
        <time>2020-06-25T12:12:31.974Z</time>
      </trkpt>
      <trkpt lat="46.15327" lon="7.19816">
        <ele>465.75</ele>
        <time>2020-06-25T12:12:41.189Z</time>
      </trkpt>
      <trkpt lat="46.15324" lon="7.19823">
        <ele>465.68</ele>
        <time>2020-06-25T12:12:43.045Z</time>
      </trkpt>
      <trkpt lat="46.15322" lon="7.19829">
        <ele>465.71</ele>
        <time>2020-06-25T12:12:47.433Z</time>
      </trkpt>
      <trkpt lat="46.15321" lon="7.19837">
        <ele>465.69</ele>
        <time>2020-06-25T12:12:52.212Z</time>
      </trkpt>
      <trkpt lat="46.1532" lon="7.19845">
        <ele>465.57</ele>
        <time>2020-06-25T12:12:53.854Z</time>
      </trkpt>
      <trkpt lat="46.1532" lon="7.1986">
        <ele>465.66</ele>
        <time>2020-06-25T12:13:03.952Z</time>
      </trkpt>
      <trkpt lat="46.15322" lon="7.19876">
        <ele>465.77</ele>
        <time>2020-06-25T12:13:15.019Z</time>
      </trkpt>
      <trkpt lat="46.15326" lon="7.19894">
        <ele>465.59</ele>
        <time>2020-06-25T12:13:19.202Z</time>
      </trkpt>
      <trkpt lat="46.1533" lon="7.19909">
        <ele>465.7</ele>
        <time>2020-06-25T12:13:30.155Z</time>
      </trkpt>
      <trkpt lat="46.15335" lon="7.19925">
        <ele>465.83</ele>
        <time>2020-06-25T12:13:42.215Z</time>
      </trkpt>
      <trkpt lat="46.1534" lon="7.19943">
        <ele>465.88</ele>
        <time>2020-06-25T12:13:54.659Z</time>
      </trkpt>
      <trkpt lat="46.15349" lon="7.19972">
        <ele>465.89</ele>
        <time>2020-06-25T12:14:14.437Z</time>
      </trkpt>
      <trkpt lat="46.15349" lon="7.19971">
        <ele>465.89</ele>
        <time>2020-06-25T12:14:15.057Z</time>
      </trkpt>
      <trkpt lat="46.15351" lon="7.19978">
        <ele>465.91</ele>
        <time>2020-06-25T12:14:19.920Z</time>
      </trkpt>
      <trkpt lat="46.15362" lon="7.20017">
        <ele>465.89</ele>
        <time>2020-06-25T12:14:45.747Z</time>
      </trkpt>
      <trkpt lat="46.15374" lon="7.20057">
        <ele>465.86</ele>
        <time>2020-06-25T12:15:12.358Z</time>
      </trkpt>
      <trkpt lat="46.15385" lon="7.20094">
        <ele>465.84</ele>
        <time>2020-06-25T12:15:37.042Z</time>
      </trkpt>
      <trkpt lat="46.15395" lon="7.20129">
        <ele>465.65</ele>
        <time>2020-06-25T12:15:58.163Z</time>
      </trkpt>
      <trkpt lat="46.15402" lon="7.20154">
        <ele>465.83</ele>
        <time>2020-06-25T12:16:16.494Z</time>
      </trkpt>
      <trkpt lat="46.1541" lon="7.20179">
        <ele>465.84</ele>
        <time>2020-06-25T12:16:33.644Z</time>
      </trkpt>
      <trkpt lat="46.15418" lon="7.20204">
        <ele>465.77</ele>
        <time>2020-06-25T12:16:49.803Z</time>
      </trkpt>
      <trkpt lat="46.15427" lon="7.20196">
        <ele>465.47</ele>
        <time>2020-06-25T12:16:52.652Z</time>
      </trkpt>
      <trkpt lat="46.1544" lon="7.20182">
        <ele>465.48</ele>
        <time>2020-06-25T12:17:07.246Z</time>
      </trkpt>
      <trkpt lat="46.15452" lon="7.20171">
        <ele>465.41</ele>
        <time>2020-06-25T12:17:19.072Z</time>
      </trkpt>
      <trkpt lat="46.15454" lon="7.20169">
        <ele>465.33</ele>
        <time>2020-06-25T12:17:19.697Z</time>
      </trkpt>
      <trkpt lat="46.15461" lon="7.20161">
        <ele>465.51</ele>
        <time>2020-06-25T12:17:29.495Z</time>
      </trkpt>
      <trkpt lat="46.15464" lon="7.2016">
        <ele>465.56</ele>
        <time>2020-06-25T12:17:32.731Z</time>
      </trkpt>
      <trkpt lat="46.15467" lon="7.2016">
        <ele>465.63</ele>
        <time>2020-06-25T12:17:36.145Z</time>
      </trkpt>
      <trkpt lat="46.1547" lon="7.20161">
        <ele>465.65</ele>
        <time>2020-06-25T12:17:39.074Z</time>
      </trkpt>
      <trkpt lat="46.15474" lon="7.20165">
        <ele>465.74</ele>
        <time>2020-06-25T12:17:44.315Z</time>
      </trkpt>
      <trkpt lat="46.15482" lon="7.20177">
        <ele>465.71</ele>
        <time>2020-06-25T12:17:54.242Z</time>
      </trkpt>
      <trkpt lat="46.15508" lon="7.20214">
        <ele>465.89</ele>
        <time>2020-06-25T12:18:28.452Z</time>
      </trkpt>
      <trkpt lat="46.15518" lon="7.20229">
        <ele>466</ele>
        <time>2020-06-25T12:18:42.324Z</time>
      </trkpt>
      <trkpt lat="46.15541" lon="7.20263">
        <ele>466.43</ele>
        <time>2020-06-25T12:19:15.780Z</time>
      </trkpt>
      <trkpt lat="46.15541" lon="7.20262">
        <ele>466.43</ele>
        <time>2020-06-25T12:19:16.400Z</time>
      </trkpt>
      <trkpt lat="46.15542" lon="7.20264">
        <ele>466.85</ele>
        <time>2020-06-25T12:19:22.296Z</time>
      </trkpt>
      <trkpt lat="46.15555" lon="7.20284">
        <ele>467.17</ele>
        <time>2020-06-25T12:19:42.395Z</time>
      </trkpt>
      <trkpt lat="46.15582" lon="7.20327">
        <ele>468.38</ele>
        <time>2020-06-25T12:20:32.055Z</time>
      </trkpt>
      <trkpt lat="46.15585" lon="7.20332">
        <ele>468.51</ele>
        <time>2020-06-25T12:20:37.595Z</time>
      </trkpt>
      <trkpt lat="46.15613" lon="7.20371">
        <ele>469.32</ele>
        <time>2020-06-25T12:21:20.608Z</time>
      </trkpt>
      <trkpt lat="46.15621" lon="7.20382">
        <ele>469.54</ele>
        <time>2020-06-25T12:21:32.698Z</time>
      </trkpt>
      <trkpt lat="46.15676" lon="7.20446">
        <ele>471.03</ele>
        <time>2020-06-25T12:22:51.038Z</time>
      </trkpt>
      <trkpt lat="46.15687" lon="7.20458">
        <ele>471.42</ele>
        <time>2020-06-25T12:23:07.688Z</time>
      </trkpt>
      <trkpt lat="46.15728" lon="7.20507">
        <ele>473.72</ele>
        <time>2020-06-25T12:24:26.507Z</time>
      </trkpt>
      <trkpt lat="46.15742" lon="7.20523">
        <ele>475.8</ele>
        <time>2020-06-25T12:25:16.005Z</time>
      </trkpt>
      <trkpt lat="46.15729" lon="7.20542">
        <ele>477.4</ele>
        <time>2020-06-25T12:25:54.040Z</time>
      </trkpt>
      <trkpt lat="46.15687" lon="7.206">
        <ele>482.11</ele>
        <time>2020-06-25T12:27:48.179Z</time>
      </trkpt>
      <trkpt lat="46.15664" lon="7.20632">
        <ele>486.81</ele>
        <time>2020-06-25T12:29:38.414Z</time>
      </trkpt>
      <trkpt lat="46.15653" lon="7.20646">
        <ele>488.69</ele>
        <time>2020-06-25T12:30:25.464Z</time>
      </trkpt>
      <trkpt lat="46.15652" lon="7.20648">
        <ele>488.96</ele>
        <time>2020-06-25T12:30:31.360Z</time>
      </trkpt>
      <trkpt lat="46.15643" lon="7.20659">
        <ele>490.42</ele>
        <time>2020-06-25T12:31:07.086Z</time>
      </trkpt>
      <trkpt lat="46.15637" lon="7.20667">
        <ele>491.47</ele>
        <time>2020-06-25T12:31:33.417Z</time>
      </trkpt>
      <trkpt lat="46.15643" lon="7.20691">
        <ele>491.45</ele>
        <time>2020-06-25T12:31:48.960Z</time>
      </trkpt>
      <trkpt lat="46.15648" lon="7.2071">
        <ele>491.16</ele>
        <time>2020-06-25T12:31:53.099Z</time>
      </trkpt>
      <trkpt lat="46.15655" lon="7.20742">
        <ele>490.34</ele>
        <time>2020-06-25T12:31:58.935Z</time>
      </trkpt>
      <trkpt lat="46.1566" lon="7.20764">
        <ele>489.96</ele>
        <time>2020-06-25T12:32:03.486Z</time>
      </trkpt>
      <trkpt lat="46.15663" lon="7.20775">
        <ele>489.3</ele>
        <time>2020-06-25T12:32:05.196Z</time>
      </trkpt>
      <trkpt lat="46.15667" lon="7.20788">
        <ele>490.15</ele>
        <time>2020-06-25T12:32:25.416Z</time>
      </trkpt>
      <trkpt lat="46.15669" lon="7.20792">
        <ele>488.36</ele>
        <time>2020-06-25T12:32:26.129Z</time>
      </trkpt>
      <trkpt lat="46.15669" lon="7.20791">
        <ele>488.36</ele>
        <time>2020-06-25T12:32:26.749Z</time>
      </trkpt>
      <trkpt lat="46.15678" lon="7.20815">
        <ele>486.57</ele>
        <time>2020-06-25T12:32:30.697Z</time>
      </trkpt>
      <trkpt lat="46.1568" lon="7.20819">
        <ele>486.21</ele>
        <time>2020-06-25T12:32:31.411Z</time>
      </trkpt>
      <trkpt lat="46.15686" lon="7.20833">
        <ele>484.88</ele>
        <time>2020-06-25T12:32:33.793Z</time>
      </trkpt>
      <trkpt lat="46.15692" lon="7.20848">
        <ele>483.45</ele>
        <time>2020-06-25T12:32:36.298Z</time>
      </trkpt>
      <trkpt lat="46.15699" lon="7.20867">
        <ele>481.59</ele>
        <time>2020-06-25T12:32:39.412Z</time>
      </trkpt>
      <trkpt lat="46.15701" lon="7.20875">
        <ele>480.74</ele>
        <time>2020-06-25T12:32:40.642Z</time>
      </trkpt>
      <trkpt lat="46.15702" lon="7.20883">
        <ele>480.29</ele>
        <time>2020-06-25T12:32:41.818Z</time>
      </trkpt>
      <trkpt lat="46.15702" lon="7.20893">
        <ele>479.23</ele>
        <time>2020-06-25T12:32:43.265Z</time>
      </trkpt>
      <trkpt lat="46.15701" lon="7.20907">
        <ele>478.13</ele>
        <time>2020-06-25T12:32:45.301Z</time>
      </trkpt>
      <trkpt lat="46.15699" lon="7.20917">
        <ele>477.43</ele>
        <time>2020-06-25T12:32:46.806Z</time>
      </trkpt>
      <trkpt lat="46.157" lon="7.20925">
        <ele>477.22</ele>
        <time>2020-06-25T12:32:48.192Z</time>
      </trkpt>
      <trkpt lat="46.15701" lon="7.20939">
        <ele>477.01</ele>
        <time>2020-06-25T12:32:51.027Z</time>
      </trkpt>
      <trkpt lat="46.15694" lon="7.20965">
        <ele>477.22</ele>
        <time>2020-06-25T12:33:10.226Z</time>
      </trkpt>
      <trkpt lat="46.15691" lon="7.20981">
        <ele>477.16</ele>
        <time>2020-06-25T12:33:19.738Z</time>
      </trkpt>
      <trkpt lat="46.1569" lon="7.20987">
        <ele>477.33</ele>
        <time>2020-06-25T12:33:25.754Z</time>
      </trkpt>
      <trkpt lat="46.1569" lon="7.20993">
        <ele>477.35</ele>
        <time>2020-06-25T12:33:29.644Z</time>
      </trkpt>
      <trkpt lat="46.1569" lon="7.20998">
        <ele>477.52</ele>
        <time>2020-06-25T12:33:35.030Z</time>
      </trkpt>
      <trkpt lat="46.15691" lon="7.21001">
        <ele>477.36</ele>
        <time>2020-06-25T12:33:35.511Z</time>
      </trkpt>
      <trkpt lat="46.15693" lon="7.21005">
        <ele>477.59</ele>
        <time>2020-06-25T12:33:41.541Z</time>
      </trkpt>
      <trkpt lat="46.15695" lon="7.21006">
        <ele>477.62</ele>
        <time>2020-06-25T12:33:43.717Z</time>
      </trkpt>
      <trkpt lat="46.157" lon="7.21009">
        <ele>477.51</ele>
        <time>2020-06-25T12:33:45.315Z</time>
      </trkpt>
      <trkpt lat="46.15705" lon="7.21011">
        <ele>477.31</ele>
        <time>2020-06-25T12:33:46.576Z</time>
      </trkpt>
      <trkpt lat="46.15708" lon="7.21013">
        <ele>477.51</ele>
        <time>2020-06-25T12:33:52.129Z</time>
      </trkpt>
      <trkpt lat="46.15711" lon="7.21016">
        <ele>477.38</ele>
        <time>2020-06-25T12:33:53.042Z</time>
      </trkpt>
      <trkpt lat="46.15714" lon="7.21019">
        <ele>477.02</ele>
        <time>2020-06-25T12:33:53.804Z</time>
      </trkpt>
      <trkpt lat="46.15716" lon="7.21023">
        <ele>476.95</ele>
        <time>2020-06-25T12:33:54.810Z</time>
      </trkpt>
      <trkpt lat="46.15718" lon="7.21028">
        <ele>476.59</ele>
        <time>2020-06-25T12:33:55.645Z</time>
      </trkpt>
      <trkpt lat="46.1572" lon="7.21032">
        <ele>476.38</ele>
        <time>2020-06-25T12:33:56.326Z</time>
      </trkpt>
      <trkpt lat="46.1572" lon="7.21031">
        <ele>476.38</ele>
        <time>2020-06-25T12:33:56.945Z</time>
      </trkpt>
      <trkpt lat="46.15721" lon="7.21035">
        <ele>476.17</ele>
        <time>2020-06-25T12:33:57.561Z</time>
      </trkpt>
      <trkpt lat="46.15725" lon="7.21045">
        <ele>475.61</ele>
        <time>2020-06-25T12:33:59.231Z</time>
      </trkpt>
      <trkpt lat="46.15743" lon="7.2108">
        <ele>473.08</ele>
        <time>2020-06-25T12:34:05.537Z</time>
      </trkpt>
      <trkpt lat="46.15751" lon="7.21093">
        <ele>472.1</ele>
        <time>2020-06-25T12:34:08.053Z</time>
      </trkpt>
      <trkpt lat="46.15756" lon="7.21099">
        <ele>471.53</ele>
        <time>2020-06-25T12:34:09.411Z</time>
      </trkpt>
      <trkpt lat="46.1576" lon="7.21103">
        <ele>471.23</ele>
        <time>2020-06-25T12:34:10.378Z</time>
      </trkpt>
      <trkpt lat="46.15763" lon="7.21104">
        <ele>470.95</ele>
        <time>2020-06-25T12:34:11.021Z</time>
      </trkpt>
      <trkpt lat="46.15766" lon="7.21105">
        <ele>470.7</ele>
        <time>2020-06-25T12:34:11.664Z</time>
      </trkpt>
      <trkpt lat="46.15771" lon="7.21105">
        <ele>470.21</ele>
        <time>2020-06-25T12:34:12.709Z</time>
      </trkpt>
      <trkpt lat="46.15777" lon="7.21104">
        <ele>469.88</ele>
        <time>2020-06-25T12:34:13.980Z</time>
      </trkpt>
      <trkpt lat="46.15781" lon="7.21101">
        <ele>469.38</ele>
        <time>2020-06-25T12:34:14.922Z</time>
      </trkpt>
      <trkpt lat="46.15784" lon="7.21097">
        <ele>469.15</ele>
        <time>2020-06-25T12:34:15.769Z</time>
      </trkpt>
      <trkpt lat="46.15789" lon="7.2109">
        <ele>468.77</ele>
        <time>2020-06-25T12:34:17.237Z</time>
      </trkpt>
      <trkpt lat="46.15797" lon="7.211">
        <ele>468.63</ele>
        <time>2020-06-25T12:34:20.639Z</time>
      </trkpt>
      <trkpt lat="46.15809" lon="7.21116">
        <ele>468.29</ele>
        <time>2020-06-25T12:34:25.429Z</time>
      </trkpt>
      <trkpt lat="46.15822" lon="7.21131">
        <ele>467.97</ele>
        <time>2020-06-25T12:34:30.401Z</time>
      </trkpt>
      <trkpt lat="46.15838" lon="7.21152">
        <ele>467.81</ele>
        <time>2020-06-25T12:34:37.912Z</time>
      </trkpt>
      <trkpt lat="46.15847" lon="7.21165">
        <ele>467.47</ele>
        <time>2020-06-25T12:34:41.407Z</time>
      </trkpt>
      <trkpt lat="46.15859" lon="7.21192">
        <ele>467.6</ele>
        <time>2020-06-25T12:35:02.413Z</time>
      </trkpt>
      <trkpt lat="46.15864" lon="7.21203">
        <ele>467.65</ele>
        <time>2020-06-25T12:35:10.999Z</time>
      </trkpt>
      <trkpt lat="46.15867" lon="7.21214">
        <ele>467.7</ele>
        <time>2020-06-25T12:35:18.759Z</time>
      </trkpt>
      <trkpt lat="46.15876" lon="7.21248">
        <ele>467.32</ele>
        <time>2020-06-25T12:35:26.681Z</time>
      </trkpt>
      <trkpt lat="46.15879" lon="7.21256">
        <ele>467.09</ele>
        <time>2020-06-25T12:35:28.244Z</time>
      </trkpt>
      <trkpt lat="46.15883" lon="7.21265">
        <ele>467.23</ele>
        <time>2020-06-25T12:35:36.258Z</time>
      </trkpt>
      <trkpt lat="46.15891" lon="7.2128">
        <ele>467.38</ele>
        <time>2020-06-25T12:35:49.364Z</time>
      </trkpt>
      <trkpt lat="46.1591" lon="7.21316">
        <ele>467.62</ele>
        <time>2020-06-25T12:36:19.528Z</time>
      </trkpt>
      <trkpt lat="46.15923" lon="7.2134">
        <ele>467.56</ele>
        <time>2020-06-25T12:36:37.621Z</time>
      </trkpt>
      <trkpt lat="46.15928" lon="7.21349">
        <ele>467.6</ele>
        <time>2020-06-25T12:36:45.114Z</time>
      </trkpt>
      <trkpt lat="46.15932" lon="7.21355">
        <ele>467.72</ele>
        <time>2020-06-25T12:36:51.490Z</time>
      </trkpt>
      <trkpt lat="46.15938" lon="7.2136">
        <ele>467.69</ele>
        <time>2020-06-25T12:36:57.303Z</time>
      </trkpt>
      <trkpt lat="46.15948" lon="7.21365">
        <ele>467.97</ele>
        <time>2020-06-25T12:37:09.800Z</time>
      </trkpt>
      <trkpt lat="46.15959" lon="7.21371">
        <ele>468.44</ele>
        <time>2020-06-25T12:37:26.397Z</time>
      </trkpt>
      <trkpt lat="46.15967" lon="7.21376">
        <ele>468.91</ele>
        <time>2020-06-25T12:37:40.394Z</time>
      </trkpt>
      <trkpt lat="46.15967" lon="7.21375">
        <ele>468.91</ele>
        <time>2020-06-25T12:37:41.014Z</time>
      </trkpt>
      <trkpt lat="46.15996" lon="7.21392">
        <ele>469.39</ele>
        <time>2020-06-25T12:38:13.595Z</time>
      </trkpt>
      <trkpt lat="46.16002" lon="7.21396">
        <ele>469.59</ele>
        <time>2020-06-25T12:38:21.775Z</time>
      </trkpt>
      <trkpt lat="46.16009" lon="7.21402">
        <ele>469.66</ele>
        <time>2020-06-25T12:38:29.682Z</time>
      </trkpt>
      <trkpt lat="46.16019" lon="7.21414">
        <ele>469.83</ele>
        <time>2020-06-25T12:38:42.899Z</time>
      </trkpt>
      <trkpt lat="46.1603" lon="7.21428">
        <ele>469.1</ele>
        <time>2020-06-25T12:38:46.116Z</time>
      </trkpt>
      <trkpt lat="46.16043" lon="7.21447">
        <ele>468.92</ele>
        <time>2020-06-25T12:38:52.342Z</time>
      </trkpt>
      <trkpt lat="46.16069" lon="7.21482">
        <ele>468.73</ele>
        <time>2020-06-25T12:39:21.740Z</time>
      </trkpt>
      <trkpt lat="46.16079" lon="7.21495">
        <ele>468.94</ele>
        <time>2020-06-25T12:39:35.788Z</time>
      </trkpt>
      <trkpt lat="46.16088" lon="7.21506">
        <ele>469.38</ele>
        <time>2020-06-25T12:39:51.816Z</time>
      </trkpt>
      <trkpt lat="46.16098" lon="7.21518">
        <ele>469.75</ele>
        <time>2020-06-25T12:40:07.552Z</time>
      </trkpt>
      <trkpt lat="46.16103" lon="7.21524">
        <ele>469.81</ele>
        <time>2020-06-25T12:40:13.906Z</time>
      </trkpt>
      <trkpt lat="46.16108" lon="7.21532">
        <ele>469.87</ele>
        <time>2020-06-25T12:40:21.114Z</time>
      </trkpt>
      <trkpt lat="46.16115" lon="7.21549">
        <ele>469.89</ele>
        <time>2020-06-25T12:40:33.537Z</time>
      </trkpt>
      <trkpt lat="46.16129" lon="7.21582">
        <ele>469.25</ele>
        <time>2020-06-25T12:40:41.126Z</time>
      </trkpt>
      <trkpt lat="46.16138" lon="7.21603">
        <ele>468.77</ele>
        <time>2020-06-25T12:40:45.752Z</time>
      </trkpt>
      <trkpt lat="46.16147" lon="7.21624">
        <ele>468.63</ele>
        <time>2020-06-25T12:40:51.630Z</time>
      </trkpt>
      <trkpt lat="46.16147" lon="7.21623">
        <ele>468.63</ele>
        <time>2020-06-25T12:40:52.250Z</time>
      </trkpt>
      <trkpt lat="46.1615" lon="7.2163">
        <ele>468.5</ele>
        <time>2020-06-25T12:40:53.884Z</time>
      </trkpt>
      <trkpt lat="46.16158" lon="7.21645">
        <ele>468.59</ele>
        <time>2020-06-25T12:41:06.403Z</time>
      </trkpt>
      <trkpt lat="46.16165" lon="7.21657">
        <ele>468.65</ele>
        <time>2020-06-25T12:41:16.644Z</time>
      </trkpt>
      <trkpt lat="46.16188" lon="7.21693">
        <ele>469.14</ele>
        <time>2020-06-25T12:41:51.622Z</time>
      </trkpt>
      <trkpt lat="46.16225" lon="7.21749">
        <ele>468.72</ele>
        <time>2020-06-25T12:42:10.132Z</time>
      </trkpt>
      <trkpt lat="46.16229" lon="7.21756">
        <ele>468.65</ele>
        <time>2020-06-25T12:42:12.208Z</time>
      </trkpt>
      <trkpt lat="46.16233" lon="7.21762">
        <ele>468.74</ele>
        <time>2020-06-25T12:42:18.230Z</time>
      </trkpt>
      <trkpt lat="46.16237" lon="7.21767">
        <ele>468.76</ele>
        <time>2020-06-25T12:42:23.133Z</time>
      </trkpt>
      <trkpt lat="46.16242" lon="7.21772">
        <ele>468.48</ele>
        <time>2020-06-25T12:42:24.513Z</time>
      </trkpt>
      <trkpt lat="46.16251" lon="7.21779">
        <ele>468.58</ele>
        <time>2020-06-25T12:42:34.559Z</time>
      </trkpt>
      <trkpt lat="46.16267" lon="7.21791">
        <ele>468.4</ele>
        <time>2020-06-25T12:42:40.607Z</time>
      </trkpt>
      <trkpt lat="46.16271" lon="7.21792">
        <ele>468.51</ele>
        <time>2020-06-25T12:42:45.439Z</time>
      </trkpt>
      <trkpt lat="46.16288" lon="7.21803">
        <ele>468.31</ele>
        <time>2020-06-25T12:42:51.626Z</time>
      </trkpt>
      <trkpt lat="46.16303" lon="7.21811">
        <ele>468.46</ele>
        <time>2020-06-25T12:43:07.278Z</time>
      </trkpt>
      <trkpt lat="46.16319" lon="7.21821">
        <ele>468.57</ele>
        <time>2020-06-25T12:43:23.833Z</time>
      </trkpt>
      <trkpt lat="46.16342" lon="7.21833">
        <ele>468.73</ele>
        <time>2020-06-25T12:43:47.109Z</time>
      </trkpt>
      <trkpt lat="46.16361" lon="7.21842">
        <ele>469.18</ele>
        <time>2020-06-25T12:44:09.645Z</time>
      </trkpt>
      <trkpt lat="46.164" lon="7.21863">
        <ele>469.55</ele>
        <time>2020-06-25T12:44:50.188Z</time>
      </trkpt>
      <trkpt lat="46.16456" lon="7.21895">
        <ele>470.59</ele>
        <time>2020-06-25T12:45:54.197Z</time>
      </trkpt>
      <trkpt lat="46.16467" lon="7.21903">
        <ele>471.06</ele>
        <time>2020-06-25T12:46:11.139Z</time>
      </trkpt>
      <trkpt lat="46.16477" lon="7.21907">
        <ele>471.03</ele>
        <time>2020-06-25T12:46:20.029Z</time>
      </trkpt>
      <trkpt lat="46.16489" lon="7.21913">
        <ele>471.29</ele>
        <time>2020-06-25T12:46:34.014Z</time>
      </trkpt>
      <trkpt lat="46.16501" lon="7.21919">
        <ele>471.44</ele>
        <time>2020-06-25T12:46:46.754Z</time>
      </trkpt>
      <trkpt lat="46.165" lon="7.21919">
        <ele>471.44</ele>
        <time>2020-06-25T12:46:47.649Z</time>
      </trkpt>
      <trkpt lat="46.16513" lon="7.21925">
        <ele>471.6</ele>
        <time>2020-06-25T12:47:01.329Z</time>
      </trkpt>
      <trkpt lat="46.16542" lon="7.21939">
        <ele>472.22</ele>
        <time>2020-06-25T12:47:34.928Z</time>
      </trkpt>
      <trkpt lat="46.16557" lon="7.21947">
        <ele>472.71</ele>
        <time>2020-06-25T12:47:54.817Z</time>
      </trkpt>
      <trkpt lat="46.16575" lon="7.21955">
        <ele>472.9</ele>
        <time>2020-06-25T12:48:13.383Z</time>
      </trkpt>
      <trkpt lat="46.16592" lon="7.21962">
        <ele>473.17</ele>
        <time>2020-06-25T12:48:31.773Z</time>
      </trkpt>
      <trkpt lat="46.16611" lon="7.2197">
        <ele>473.35</ele>
        <time>2020-06-25T12:48:51.089Z</time>
      </trkpt>
      <trkpt lat="46.16623" lon="7.21972">
        <ele>473.53</ele>
        <time>2020-06-25T12:49:03.605Z</time>
      </trkpt>
      <trkpt lat="46.16627" lon="7.21973">
        <ele>473.59</ele>
        <time>2020-06-25T12:49:07.806Z</time>
      </trkpt>
      <trkpt lat="46.16639" lon="7.21974">
        <ele>473.95</ele>
        <time>2020-06-25T12:49:22.626Z</time>
      </trkpt>
      <trkpt lat="46.16673" lon="7.21976">
        <ele>474.14</ele>
        <time>2020-06-25T12:49:54.713Z</time>
      </trkpt>
      <trkpt lat="46.16696" lon="7.21977">
        <ele>474.49</ele>
        <time>2020-06-25T12:50:18.633Z</time>
      </trkpt>
      <trkpt lat="46.16712" lon="7.21979">
        <ele>474.75</ele>
        <time>2020-06-25T12:50:35.504Z</time>
      </trkpt>
      <trkpt lat="46.16715" lon="7.21979">
        <ele>474.86</ele>
        <time>2020-06-25T12:50:39.545Z</time>
      </trkpt>
      <trkpt lat="46.16717" lon="7.21978">
        <ele>474.66</ele>
        <time>2020-06-25T12:50:39.987Z</time>
      </trkpt>
      <trkpt lat="46.16745" lon="7.21989">
        <ele>475.36</ele>
        <time>2020-06-25T12:51:13.314Z</time>
      </trkpt>
      <trkpt lat="46.16749" lon="7.21991">
        <ele>475.57</ele>
        <time>2020-06-25T12:51:19.919Z</time>
      </trkpt>
      <trkpt lat="46.16754" lon="7.21991">
        <ele>475.6</ele>
        <time>2020-06-25T12:51:24.653Z</time>
      </trkpt>
      <trkpt lat="46.16758" lon="7.21992">
        <ele>475.78</ele>
        <time>2020-06-25T12:51:30.769Z</time>
      </trkpt>
      <trkpt lat="46.16776" lon="7.21992">
        <ele>475.91</ele>
        <time>2020-06-25T12:51:48.015Z</time>
      </trkpt>
      <trkpt lat="46.16793" lon="7.21992">
        <ele>476.29</ele>
        <time>2020-06-25T12:52:07.141Z</time>
      </trkpt>
      <trkpt lat="46.16814" lon="7.21994">
        <ele>476.71</ele>
        <time>2020-06-25T12:52:30.183Z</time>
      </trkpt>
      <trkpt lat="46.16831" lon="7.21998">
        <ele>477.16</ele>
        <time>2020-06-25T12:52:50.441Z</time>
      </trkpt>
      <trkpt lat="46.16853" lon="7.22002">
        <ele>478</ele>
        <time>2020-06-25T12:53:20.823Z</time>
      </trkpt>
      <trkpt lat="46.16865" lon="7.22004">
        <ele>478.43</ele>
        <time>2020-06-25T12:53:36.859Z</time>
      </trkpt>
      <trkpt lat="46.16869" lon="7.2201">
        <ele>478.84</ele>
        <time>2020-06-25T12:53:47.329Z</time>
      </trkpt>
      <trkpt lat="46.16878" lon="7.22022">
        <ele>479.75</ele>
        <time>2020-06-25T12:54:10.120Z</time>
      </trkpt>
      <trkpt lat="46.16885" lon="7.22032">
        <ele>480.49</ele>
        <time>2020-06-25T12:54:28.565Z</time>
      </trkpt>
      <trkpt lat="46.16892" lon="7.22041">
        <ele>481.22</ele>
        <time>2020-06-25T12:54:46.506Z</time>
      </trkpt>
      <trkpt lat="46.16902" lon="7.22054">
        <ele>482.16</ele>
        <time>2020-06-25T12:55:10.706Z</time>
      </trkpt>
      <trkpt lat="46.16909" lon="7.22053">
        <ele>482.53</ele>
        <time>2020-06-25T12:55:21.901Z</time>
      </trkpt>
      <trkpt lat="46.16912" lon="7.22053">
        <ele>482.88</ele>
        <time>2020-06-25T12:55:30.234Z</time>
      </trkpt>
      <trkpt lat="46.16912" lon="7.22053">
        <ele>482.88</ele>
        <time>2020-06-25T12:55:30.234Z</time>
      </trkpt>
      <trkpt lat="46.16926" lon="7.22049">
        <ele>483.23</ele>
        <time>2020-06-25T12:55:46.703Z</time>
      </trkpt>
      <trkpt lat="46.16944" lon="7.22046">
        <ele>483.57</ele>
        <time>2020-06-25T12:56:06.279Z</time>
      </trkpt>
      <trkpt lat="46.16966" lon="7.22042">
        <ele>483.92</ele>
        <time>2020-06-25T12:56:29.471Z</time>
      </trkpt>
      <trkpt lat="46.16986" lon="7.22037">
        <ele>484.1</ele>
        <time>2020-06-25T12:56:49.237Z</time>
      </trkpt>
      <trkpt lat="46.16998" lon="7.22035">
        <ele>484.32</ele>
        <time>2020-06-25T12:57:02.209Z</time>
      </trkpt>
      <trkpt lat="46.17008" lon="7.22034">
        <ele>484.57</ele>
        <time>2020-06-25T12:57:13.833Z</time>
      </trkpt>
      <trkpt lat="46.17017" lon="7.22036">
        <ele>484.89</ele>
        <time>2020-06-25T12:57:25.848Z</time>
      </trkpt>
      <trkpt lat="46.17028" lon="7.22041">
        <ele>485.25</ele>
        <time>2020-06-25T12:57:40.297Z</time>
      </trkpt>
      <trkpt lat="46.17039" lon="7.22047">
        <ele>485.69</ele>
        <time>2020-06-25T12:57:56.304Z</time>
      </trkpt>
      <trkpt lat="46.17051" lon="7.22054">
        <ele>486.34</ele>
        <time>2020-06-25T12:58:16.581Z</time>
      </trkpt>
      <trkpt lat="46.1707" lon="7.22064">
        <ele>486.41</ele>
        <time>2020-06-25T12:58:35.267Z</time>
      </trkpt>
      <trkpt lat="46.17083" lon="7.22072">
        <ele>486.58</ele>
        <time>2020-06-25T12:58:49.476Z</time>
      </trkpt>
      <trkpt lat="46.17123" lon="7.22093">
        <ele>487.15</ele>
        <time>2020-06-25T12:59:32.881Z</time>
      </trkpt>
      <trkpt lat="46.17131" lon="7.22098">
        <ele>487.22</ele>
        <time>2020-06-25T12:59:41.300Z</time>
      </trkpt>
      <trkpt lat="46.17143" lon="7.22105">
        <ele>487.43</ele>
        <time>2020-06-25T12:59:54.901Z</time>
      </trkpt>
      <trkpt lat="46.17158" lon="7.22115">
        <ele>487.57</ele>
        <time>2020-06-25T13:00:10.927Z</time>
      </trkpt>
      <trkpt lat="46.17166" lon="7.22124">
        <ele>488.02</ele>
        <time>2020-06-25T13:00:26.213Z</time>
      </trkpt>
      <trkpt lat="46.17206" lon="7.22156">
        <ele>489.4</ele>
        <time>2020-06-25T13:01:22.757Z</time>
      </trkpt>
      <trkpt lat="46.17217" lon="7.22167">
        <ele>489.83</ele>
        <time>2020-06-25T13:01:39.722Z</time>
      </trkpt>
      <trkpt lat="46.17234" lon="7.22183">
        <ele>489.93</ele>
        <time>2020-06-25T13:01:58.736Z</time>
      </trkpt>
      <trkpt lat="46.17237" lon="7.22185">
        <ele>489.94</ele>
        <time>2020-06-25T13:02:01.777Z</time>
      </trkpt>
      <trkpt lat="46.17256" lon="7.22203">
        <ele>490.43</ele>
        <time>2020-06-25T13:02:27.112Z</time>
      </trkpt>
      <trkpt lat="46.17264" lon="7.2221">
        <ele>490.66</ele>
        <time>2020-06-25T13:02:37.914Z</time>
      </trkpt>
      <trkpt lat="46.17287" lon="7.2223">
        <ele>491.25</ele>
        <time>2020-06-25T13:03:07.989Z</time>
      </trkpt>
      <trkpt lat="46.1729" lon="7.22232">
        <ele>491.42</ele>
        <time>2020-06-25T13:03:13.208Z</time>
      </trkpt>
      <trkpt lat="46.17289" lon="7.22232">
        <ele>491.42</ele>
        <time>2020-06-25T13:03:14.103Z</time>
      </trkpt>
      <trkpt lat="46.17295" lon="7.22236">
        <ele>491.58</ele>
        <time>2020-06-25T13:03:21.700Z</time>
      </trkpt>
      <trkpt lat="46.17307" lon="7.22245">
        <ele>491.86</ele>
        <time>2020-06-25T13:03:36.630Z</time>
      </trkpt>
      <trkpt lat="46.17311" lon="7.22247">
        <ele>491.7</ele>
        <time>2020-06-25T13:03:37.667Z</time>
      </trkpt>
      <trkpt lat="46.17317" lon="7.22252">
        <ele>491.53</ele>
        <time>2020-06-25T13:03:39.614Z</time>
      </trkpt>
      <trkpt lat="46.17329" lon="7.22264">
        <ele>491.33</ele>
        <time>2020-06-25T13:03:44.280Z</time>
      </trkpt>
      <trkpt lat="46.17343" lon="7.22281">
        <ele>490.5</ele>
        <time>2020-06-25T13:03:48.453Z</time>
      </trkpt>
      <trkpt lat="46.17362" lon="7.22303">
        <ele>489.59</ele>
        <time>2020-06-25T13:03:54.442Z</time>
      </trkpt>
      <trkpt lat="46.17382" lon="7.22325">
        <ele>489.1</ele>
        <time>2020-06-25T13:04:01.930Z</time>
      </trkpt>
      <trkpt lat="46.17418" lon="7.22368">
        <ele>487.75</ele>
        <time>2020-06-25T13:04:14.454Z</time>
      </trkpt>
      <trkpt lat="46.17441" lon="7.22395">
        <ele>487.28</ele>
        <time>2020-06-25T13:04:23.676Z</time>
      </trkpt>
      <trkpt lat="46.17452" lon="7.22408">
        <ele>486.97</ele>
        <time>2020-06-25T13:04:27.797Z</time>
      </trkpt>
      <trkpt lat="46.17469" lon="7.22428">
        <ele>486.63</ele>
        <time>2020-06-25T13:04:34.649Z</time>
      </trkpt>
      <trkpt lat="46.175" lon="7.22464">
        <ele>486.25</ele>
        <time>2020-06-25T13:04:48.070Z</time>
      </trkpt>
      <trkpt lat="46.17503" lon="7.22469">
        <ele>486.01</ele>
        <time>2020-06-25T13:04:49.053Z</time>
      </trkpt>
      <trkpt lat="46.17512" lon="7.22478">
        <ele>485.48</ele>
        <time>2020-06-25T13:04:51.483Z</time>
      </trkpt>
      <trkpt lat="46.17526" lon="7.22497">
        <ele>484.62</ele>
        <time>2020-06-25T13:04:55.891Z</time>
      </trkpt>
      <trkpt lat="46.17542" lon="7.22519">
        <ele>483.76</ele>
        <time>2020-06-25T13:05:01.243Z</time>
      </trkpt>
      <trkpt lat="46.17554" lon="7.22538">
        <ele>483.03</ele>
        <time>2020-06-25T13:05:05.473Z</time>
      </trkpt>
      <trkpt lat="46.17565" lon="7.22556">
        <ele>482.43</ele>
        <time>2020-06-25T13:05:09.613Z</time>
      </trkpt>
      <trkpt lat="46.17573" lon="7.22572">
        <ele>482.04</ele>
        <time>2020-06-25T13:05:13.290Z</time>
      </trkpt>
      <trkpt lat="46.17573" lon="7.22571">
        <ele>482.04</ele>
        <time>2020-06-25T13:05:13.910Z</time>
      </trkpt>
      <trkpt lat="46.17577" lon="7.22579">
        <ele>481.66</ele>
        <time>2020-06-25T13:05:15.336Z</time>
      </trkpt>
      <trkpt lat="46.17585" lon="7.22594">
        <ele>481.04</ele>
        <time>2020-06-25T13:05:18.277Z</time>
      </trkpt>
      <trkpt lat="46.17589" lon="7.22604">
        <ele>480.59</ele>
        <time>2020-06-25T13:05:19.937Z</time>
      </trkpt>
      <trkpt lat="46.17594" lon="7.22613">
        <ele>480.14</ele>
        <time>2020-06-25T13:05:21.596Z</time>
      </trkpt>
      <trkpt lat="46.17593" lon="7.22614">
        <ele>480.14</ele>
        <time>2020-06-25T13:05:22.684Z</time>
      </trkpt>
      <trkpt lat="46.17593" lon="7.22616">
        <ele>480.14</ele>
        <time>2020-06-25T13:05:23.923Z</time>
      </trkpt>
      <trkpt lat="46.17592" lon="7.22618">
        <ele>480.14</ele>
        <time>2020-06-25T13:05:25.452Z</time>
      </trkpt>
      <trkpt lat="46.17593" lon="7.2262">
        <ele>480.14</ele>
        <time>2020-06-25T13:05:26.980Z</time>
      </trkpt>
      <trkpt lat="46.17593" lon="7.22621">
        <ele>480.13</ele>
        <time>2020-06-25T13:05:27.199Z</time>
      </trkpt>
      <trkpt lat="46.17594" lon="7.22623">
        <ele>480.13</ele>
        <time>2020-06-25T13:05:28.728Z</time>
      </trkpt>
      <trkpt lat="46.17595" lon="7.22624">
        <ele>480.13</ele>
        <time>2020-06-25T13:05:29.816Z</time>
      </trkpt>
      <trkpt lat="46.17596" lon="7.22624">
        <ele>480.11</ele>
        <time>2020-06-25T13:05:30.112Z</time>
      </trkpt>
      <trkpt lat="46.17597" lon="7.22624">
        <ele>480.1</ele>
        <time>2020-06-25T13:05:30.447Z</time>
      </trkpt>
      <trkpt lat="46.17598" lon="7.22624">
        <ele>480.09</ele>
        <time>2020-06-25T13:05:30.783Z</time>
      </trkpt>
      <trkpt lat="46.17599" lon="7.22623">
        <ele>480.08</ele>
        <time>2020-06-25T13:05:31.201Z</time>
      </trkpt>
      <trkpt lat="46.17614" lon="7.22653">
        <ele>478.99</ele>
        <time>2020-06-25T13:05:37.200Z</time>
      </trkpt>
      <trkpt lat="46.17626" lon="7.22676">
        <ele>478.18</ele>
        <time>2020-06-25T13:05:41.954Z</time>
      </trkpt>
      <trkpt lat="46.17639" lon="7.22701">
        <ele>477.77</ele>
        <time>2020-06-25T13:05:48.443Z</time>
      </trkpt>
      <trkpt lat="46.17653" lon="7.22729">
        <ele>476.8</ele>
        <time>2020-06-25T13:05:54.147Z</time>
      </trkpt>
      <trkpt lat="46.17658" lon="7.22738">
        <ele>476.62</ele>
        <time>2020-06-25T13:05:56.445Z</time>
      </trkpt>
      <trkpt lat="46.17664" lon="7.22748">
        <ele>476.22</ele>
        <time>2020-06-25T13:05:58.568Z</time>
      </trkpt>
      <trkpt lat="46.17668" lon="7.22752">
        <ele>476.01</ele>
        <time>2020-06-25T13:05:59.700Z</time>
      </trkpt>
      <trkpt lat="46.17673" lon="7.22757">
        <ele>476.04</ele>
        <time>2020-06-25T13:06:05.399Z</time>
      </trkpt>
      <trkpt lat="46.17679" lon="7.22761">
        <ele>475.71</ele>
        <time>2020-06-25T13:06:06.847Z</time>
      </trkpt>
      <trkpt lat="46.17689" lon="7.22768">
        <ele>475.26</ele>
        <time>2020-06-25T13:06:09.500Z</time>
      </trkpt>
      <trkpt lat="46.17701" lon="7.22775">
        <ele>475.22</ele>
        <time>2020-06-25T13:06:20.555Z</time>
      </trkpt>
      <trkpt lat="46.17724" lon="7.2279">
        <ele>475.22</ele>
        <time>2020-06-25T13:06:43.135Z</time>
      </trkpt>
      <trkpt lat="46.17758" lon="7.2281">
        <ele>475.22</ele>
        <time>2020-06-25T13:07:15.981Z</time>
      </trkpt>
      <trkpt lat="46.17767" lon="7.22816">
        <ele>475.25</ele>
        <time>2020-06-25T13:07:25.103Z</time>
      </trkpt>
      <trkpt lat="46.17774" lon="7.22793">
        <ele>475.36</ele>
        <time>2020-06-25T13:07:41.625Z</time>
      </trkpt>
      <trkpt lat="46.17779" lon="7.22779">
        <ele>475.31</ele>
        <time>2020-06-25T13:07:50.743Z</time>
      </trkpt>
      <trkpt lat="46.17779" lon="7.22779">
        <ele>475.31</ele>
        <time>2020-06-25T13:07:50.743Z</time>
      </trkpt>
      <trkpt lat="46.17783" lon="7.22768">
        <ele>475.25</ele>
        <time>2020-06-25T13:07:57.697Z</time>
      </trkpt>
      <trkpt lat="46.17794" lon="7.22736">
        <ele>475.39</ele>
        <time>2020-06-25T13:08:21.041Z</time>
      </trkpt>
      <trkpt lat="46.17802" lon="7.22714">
        <ele>475.11</ele>
        <time>2020-06-25T13:08:26.367Z</time>
      </trkpt>
      <trkpt lat="46.17827" lon="7.22641">
        <ele>475.03</ele>
        <time>2020-06-25T13:09:15.747Z</time>
      </trkpt>
      <trkpt lat="46.17831" lon="7.2263">
        <ele>474.91</ele>
        <time>2020-06-25T13:09:18.489Z</time>
      </trkpt>
      <trkpt lat="46.17832" lon="7.22622">
        <ele>474.49</ele>
        <time>2020-06-25T13:09:19.664Z</time>
      </trkpt>
      <trkpt lat="46.17832" lon="7.22608">
        <ele>473.12</ele>
        <time>2020-06-25T13:09:21.689Z</time>
      </trkpt>
      <trkpt lat="46.17831" lon="7.22594">
        <ele>472.11</ele>
        <time>2020-06-25T13:09:23.724Z</time>
      </trkpt>
      <trkpt lat="46.17831" lon="7.22583">
        <ele>471.46</ele>
        <time>2020-06-25T13:09:25.315Z</time>
      </trkpt>
      <trkpt lat="46.17832" lon="7.22578">
        <ele>471.78</ele>
        <time>2020-06-25T13:09:32.874Z</time>
      </trkpt>
      <trkpt lat="46.17833" lon="7.22573">
        <ele>471.57</ele>
        <time>2020-06-25T13:09:33.611Z</time>
      </trkpt>
      <trkpt lat="46.17836" lon="7.22569">
        <ele>471.7</ele>
        <time>2020-06-25T13:09:38.768Z</time>
      </trkpt>
      <trkpt lat="46.1784" lon="7.22562">
        <ele>471.83</ele>
        <time>2020-06-25T13:09:45.705Z</time>
      </trkpt>
      <trkpt lat="46.17844" lon="7.22557">
        <ele>472.41</ele>
        <time>2020-06-25T13:09:59.289Z</time>
      </trkpt>
      <trkpt lat="46.17854" lon="7.22541">
        <ele>474.05</ele>
        <time>2020-06-25T13:10:37.716Z</time>
      </trkpt>
      <trkpt lat="46.17859" lon="7.22529">
        <ele>474.45</ele>
        <time>2020-06-25T13:10:51.661Z</time>
      </trkpt>
      <trkpt lat="46.17867" lon="7.22513">
        <ele>474.27</ele>
        <time>2020-06-25T13:10:56.059Z</time>
      </trkpt>
      <trkpt lat="46.17881" lon="7.22485">
        <ele>474.35</ele>
        <time>2020-06-25T13:11:18.131Z</time>
      </trkpt>
      <trkpt lat="46.17885" lon="7.22478">
        <ele>474.27</ele>
        <time>2020-06-25T13:11:20.165Z</time>
      </trkpt>
      <trkpt lat="46.17886" lon="7.2247">
        <ele>474.2</ele>
        <time>2020-06-25T13:11:21.993Z</time>
      </trkpt>
      <trkpt lat="46.17888" lon="7.22422">
        <ele>473.88</ele>
        <time>2020-06-25T13:11:33.218Z</time>
      </trkpt>
      <trkpt lat="46.1789" lon="7.22387">
        <ele>472.91</ele>
        <time>2020-06-25T13:11:39.055Z</time>
      </trkpt>
      <trkpt lat="46.17891" lon="7.22363">
        <ele>472.97</ele>
        <time>2020-06-25T13:11:54.458Z</time>
      </trkpt>
      <trkpt lat="46.17892" lon="7.22346">
        <ele>473.22</ele>
        <time>2020-06-25T13:12:07.569Z</time>
      </trkpt>
      <trkpt lat="46.17893" lon="7.22324">
        <ele>473.39</ele>
        <time>2020-06-25T13:12:22.779Z</time>
      </trkpt>
      <trkpt lat="46.17893" lon="7.22317">
        <ele>473.37</ele>
        <time>2020-06-25T13:12:26.858Z</time>
      </trkpt>
      <trkpt lat="46.17893" lon="7.2231">
        <ele>473.5</ele>
        <time>2020-06-25T13:12:32.607Z</time>
      </trkpt>
      <trkpt lat="46.17893" lon="7.2231">
        <ele>473.5</ele>
        <time>2020-06-25T13:12:32.607Z</time>
      </trkpt>
      <trkpt lat="46.17894" lon="7.22287">
        <ele>473.63</ele>
        <time>2020-06-25T13:12:48.035Z</time>
      </trkpt>
      <trkpt lat="46.17895" lon="7.2227">
        <ele>474.12</ele>
        <time>2020-06-25T13:13:05.081Z</time>
      </trkpt>
      <trkpt lat="46.17895" lon="7.22256">
        <ele>473.88</ele>
        <time>2020-06-25T13:13:07.799Z</time>
      </trkpt>
      <trkpt lat="46.17894" lon="7.22253">
        <ele>473.91</ele>
        <time>2020-06-25T13:13:10.140Z</time>
      </trkpt>
      <trkpt lat="46.17891" lon="7.22181">
        <ele>474.31</ele>
        <time>2020-06-25T13:13:58.363Z</time>
      </trkpt>
      <trkpt lat="46.17888" lon="7.22127">
        <ele>474.11</ele>
        <time>2020-06-25T13:14:29.389Z</time>
      </trkpt>
      <trkpt lat="46.17886" lon="7.22083">
        <ele>473.9</ele>
        <time>2020-06-25T13:14:54.102Z</time>
      </trkpt>
      <trkpt lat="46.17883" lon="7.2204">
        <ele>473.84</ele>
        <time>2020-06-25T13:15:20.078Z</time>
      </trkpt>
      <trkpt lat="46.17881" lon="7.21998">
        <ele>474.24</ele>
        <time>2020-06-25T13:15:49.908Z</time>
      </trkpt>
      <trkpt lat="46.1788" lon="7.21972">
        <ele>473.9</ele>
        <time>2020-06-25T13:15:55.318Z</time>
      </trkpt>
      <trkpt lat="46.17879" lon="7.21953">
        <ele>474.19</ele>
        <time>2020-06-25T13:16:10.098Z</time>
      </trkpt>
      <trkpt lat="46.17877" lon="7.21912">
        <ele>473.84</ele>
        <time>2020-06-25T13:16:19.360Z</time>
      </trkpt>
      <trkpt lat="46.17875" lon="7.21871">
        <ele>473.89</ele>
        <time>2020-06-25T13:16:45.239Z</time>
      </trkpt>
      <trkpt lat="46.17875" lon="7.2187">
        <ele>473.89</ele>
        <time>2020-06-25T13:16:45.858Z</time>
      </trkpt>
      <trkpt lat="46.17875" lon="7.21861">
        <ele>473.93</ele>
        <time>2020-06-25T13:16:51.782Z</time>
      </trkpt>
      <trkpt lat="46.17875" lon="7.21854">
        <ele>474.03</ele>
        <time>2020-06-25T13:16:57.129Z</time>
      </trkpt>
      <trkpt lat="46.17875" lon="7.21844">
        <ele>474.19</ele>
        <time>2020-06-25T13:17:04.988Z</time>
      </trkpt>
      <trkpt lat="46.17875" lon="7.21831">
        <ele>473.9</ele>
        <time>2020-06-25T13:17:07.318Z</time>
      </trkpt>
      <trkpt lat="46.17877" lon="7.21816">
        <ele>474.32</ele>
        <time>2020-06-25T13:17:22.191Z</time>
      </trkpt>
      <trkpt lat="46.1788" lon="7.21789">
        <ele>474.72</ele>
        <time>2020-06-25T13:17:43.197Z</time>
      </trkpt>
      <trkpt lat="46.17876" lon="7.2178">
        <ele>474.99</ele>
        <time>2020-06-25T13:17:53.145Z</time>
      </trkpt>
      <trkpt lat="46.17874" lon="7.21771">
        <ele>474.85</ele>
        <time>2020-06-25T13:17:55.051Z</time>
      </trkpt>
      <trkpt lat="46.17872" lon="7.21764">
        <ele>474.78</ele>
        <time>2020-06-25T13:17:56.734Z</time>
      </trkpt>
      <trkpt lat="46.17872" lon="7.21756">
        <ele>474.57</ele>
        <time>2020-06-25T13:17:58.090Z</time>
      </trkpt>
      <trkpt lat="46.17868" lon="7.21686">
        <ele>473.89</ele>
        <time>2020-06-25T13:18:13.580Z</time>
      </trkpt>
      <trkpt lat="46.17866" lon="7.2163">
        <ele>473.79</ele>
        <time>2020-06-25T13:18:47.000Z</time>
      </trkpt>
      <trkpt lat="46.17864" lon="7.2159">
        <ele>473.86</ele>
        <time>2020-06-25T13:19:12.432Z</time>
      </trkpt>
      <trkpt lat="46.17864" lon="7.21579">
        <ele>473.79</ele>
        <time>2020-06-25T13:19:15.014Z</time>
      </trkpt>
      <trkpt lat="46.17866" lon="7.21541">
        <ele>472.84</ele>
        <time>2020-06-25T13:19:21.591Z</time>
      </trkpt>
      <trkpt lat="46.17867" lon="7.21515">
        <ele>471.48</ele>
        <time>2020-06-25T13:19:25.357Z</time>
      </trkpt>
      <trkpt lat="46.1787" lon="7.21484">
        <ele>470.57</ele>
        <time>2020-06-25T13:19:30.458Z</time>
      </trkpt>
      <trkpt lat="46.1787" lon="7.21474">
        <ele>470.69</ele>
        <time>2020-06-25T13:19:37.822Z</time>
      </trkpt>
      <trkpt lat="46.17868" lon="7.21461">
        <ele>470.89</ele>
        <time>2020-06-25T13:19:48.117Z</time>
      </trkpt>
      <trkpt lat="46.17867" lon="7.2145">
        <ele>470.8</ele>
        <time>2020-06-25T13:19:50.636Z</time>
      </trkpt>
      <trkpt lat="46.17865" lon="7.21438">
        <ele>470.85</ele>
        <time>2020-06-25T13:19:58.716Z</time>
      </trkpt>
      <trkpt lat="46.17862" lon="7.21419">
        <ele>471.42</ele>
        <time>2020-06-25T13:20:18.408Z</time>
      </trkpt>
      <trkpt lat="46.1786" lon="7.21395">
        <ele>472.25</ele>
        <time>2020-06-25T13:20:44.523Z</time>
      </trkpt>
      <trkpt lat="46.17858" lon="7.21375">
        <ele>472.94</ele>
        <time>2020-06-25T13:21:06.315Z</time>
      </trkpt>
      <trkpt lat="46.17856" lon="7.21362">
        <ele>473.48</ele>
        <time>2020-06-25T13:21:21.598Z</time>
      </trkpt>
      <trkpt lat="46.17854" lon="7.21353">
        <ele>473.55</ele>
        <time>2020-06-25T13:21:28.090Z</time>
      </trkpt>
      <trkpt lat="46.17853" lon="7.21338">
        <ele>473.75</ele>
        <time>2020-06-25T13:21:39.413Z</time>
      </trkpt>
      <trkpt lat="46.17852" lon="7.21322">
        <ele>473.76</ele>
        <time>2020-06-25T13:21:49.448Z</time>
      </trkpt>
      <trkpt lat="46.17851" lon="7.21305">
        <ele>473.66</ele>
        <time>2020-06-25T13:21:53.493Z</time>
      </trkpt>
      <trkpt lat="46.1785" lon="7.21286">
        <ele>473.51</ele>
        <time>2020-06-25T13:21:57.839Z</time>
      </trkpt>
      <trkpt lat="46.1785" lon="7.21282">
        <ele>473.51</ele>
        <time>2020-06-25T13:22:00.317Z</time>
      </trkpt>
      <trkpt lat="46.17846" lon="7.21178">
        <ele>473.45</ele>
        <time>2020-06-25T13:23:04.033Z</time>
      </trkpt>
      <trkpt lat="46.17839" lon="7.21011">
        <ele>473.47</ele>
        <time>2020-06-25T13:24:47.845Z</time>
      </trkpt>
      <trkpt lat="46.17838" lon="7.20982">
        <ele>473.28</ele>
        <time>2020-06-25T13:24:54.637Z</time>
      </trkpt>
      <trkpt lat="46.17836" lon="7.20952">
        <ele>473.32</ele>
        <time>2020-06-25T13:25:13.642Z</time>
      </trkpt>
      <trkpt lat="46.17834" lon="7.20936">
        <ele>473.26</ele>
        <time>2020-06-25T13:25:22.954Z</time>
      </trkpt>
      <trkpt lat="46.17834" lon="7.20935">
        <ele>473.26</ele>
        <time>2020-06-25T13:25:23.573Z</time>
      </trkpt>
      <trkpt lat="46.17833" lon="7.20926">
        <ele>473.21</ele>
        <time>2020-06-25T13:25:25.750Z</time>
      </trkpt>
      <trkpt lat="46.1783" lon="7.209">
        <ele>473.29</ele>
        <time>2020-06-25T13:25:42.763Z</time>
      </trkpt>
      <trkpt lat="46.17824" lon="7.20847">
        <ele>473.16</ele>
        <time>2020-06-25T13:26:14.341Z</time>
      </trkpt>
      <trkpt lat="46.1782" lon="7.20821">
        <ele>473.26</ele>
        <time>2020-06-25T13:26:31.704Z</time>
      </trkpt>
      <trkpt lat="46.17812" lon="7.2077">
        <ele>473.1</ele>
        <time>2020-06-25T13:27:02.045Z</time>
      </trkpt>
      <trkpt lat="46.17806" lon="7.20742">
        <ele>473.14</ele>
        <time>2020-06-25T13:27:20.537Z</time>
      </trkpt>
      <trkpt lat="46.17805" lon="7.20737">
        <ele>473.11</ele>
        <time>2020-06-25T13:27:21.773Z</time>
      </trkpt>
      <trkpt lat="46.17802" lon="7.20726">
        <ele>473.03</ele>
        <time>2020-06-25T13:27:24.527Z</time>
      </trkpt>
      <trkpt lat="46.17797" lon="7.20708">
        <ele>473.08</ele>
        <time>2020-06-25T13:27:36.966Z</time>
      </trkpt>
      <trkpt lat="46.17793" lon="7.20691">
        <ele>473.04</ele>
        <time>2020-06-25T13:27:47.567Z</time>
      </trkpt>
      <trkpt lat="46.17782" lon="7.20649">
        <ele>473.04</ele>
        <time>2020-06-25T13:28:15.386Z</time>
      </trkpt>
      <trkpt lat="46.1777" lon="7.20611">
        <ele>472.64</ele>
        <time>2020-06-25T13:28:24.615Z</time>
      </trkpt>
      <trkpt lat="46.17762" lon="7.20587">
        <ele>472.95</ele>
        <time>2020-06-25T13:28:44.119Z</time>
      </trkpt>
      <trkpt lat="46.17748" lon="7.20546">
        <ele>472.98</ele>
        <time>2020-06-25T13:29:12.688Z</time>
      </trkpt>
      <trkpt lat="46.17739" lon="7.20524">
        <ele>472.91</ele>
        <time>2020-06-25T13:29:27.614Z</time>
      </trkpt>
      <trkpt lat="46.17732" lon="7.20506">
        <ele>472.89</ele>
        <time>2020-06-25T13:29:40.135Z</time>
      </trkpt>
      <trkpt lat="46.17725" lon="7.20491">
        <ele>472.79</ele>
        <time>2020-06-25T13:29:44.451Z</time>
      </trkpt>
      <trkpt lat="46.17717" lon="7.20471">
        <ele>472.95</ele>
        <time>2020-06-25T13:30:00.204Z</time>
      </trkpt>
      <trkpt lat="46.17694" lon="7.20426">
        <ele>472.86</ele>
        <time>2020-06-25T13:30:33.664Z</time>
      </trkpt>
      <trkpt lat="46.17683" lon="7.20405">
        <ele>472.84</ele>
        <time>2020-06-25T13:30:49.708Z</time>
      </trkpt>
      <trkpt lat="46.17671" lon="7.20382">
        <ele>471.17</ele>
        <time>2020-06-25T13:30:53.872Z</time>
      </trkpt>
      <trkpt lat="46.1766" lon="7.20363">
        <ele>472.9</ele>
        <time>2020-06-25T13:31:34.118Z</time>
      </trkpt>
      <trkpt lat="46.17648" lon="7.20343">
        <ele>472.87</ele>
        <time>2020-06-25T13:31:50.112Z</time>
      </trkpt>
      <trkpt lat="46.17639" lon="7.2033">
        <ele>472.78</ele>
        <time>2020-06-25T13:32:00.388Z</time>
      </trkpt>
      <trkpt lat="46.17632" lon="7.20317">
        <ele>472.8</ele>
        <time>2020-06-25T13:32:10.757Z</time>
      </trkpt>
      <trkpt lat="46.17619" lon="7.20297">
        <ele>472.88</ele>
        <time>2020-06-25T13:32:28.433Z</time>
      </trkpt>
      <trkpt lat="46.17606" lon="7.20277">
        <ele>472.92</ele>
        <time>2020-06-25T13:32:45.762Z</time>
      </trkpt>
      <trkpt lat="46.17594" lon="7.20258">
        <ele>472.63</ele>
        <time>2020-06-25T13:32:51.274Z</time>
      </trkpt>
      <trkpt lat="46.17582" lon="7.2024">
        <ele>472.6</ele>
        <time>2020-06-25T13:33:06.353Z</time>
      </trkpt>
      <trkpt lat="46.17578" lon="7.20233">
        <ele>472.69</ele>
        <time>2020-06-25T13:33:12.825Z</time>
      </trkpt>
      <trkpt lat="46.17578" lon="7.20232">
        <ele>472.69</ele>
        <time>2020-06-25T13:33:13.445Z</time>
      </trkpt>
      <trkpt lat="46.17569" lon="7.20218">
        <ele>472.79</ele>
        <time>2020-06-25T13:33:26.160Z</time>
      </trkpt>
      <trkpt lat="46.17564" lon="7.2021">
        <ele>472.77</ele>
        <time>2020-06-25T13:33:32.574Z</time>
      </trkpt>
      <trkpt lat="46.17549" lon="7.20186">
        <ele>472.77</ele>
        <time>2020-06-25T13:33:52.604Z</time>
      </trkpt>
      <trkpt lat="46.17544" lon="7.20178">
        <ele>472.51</ele>
        <time>2020-06-25T13:33:54.485Z</time>
      </trkpt>
      <trkpt lat="46.17542" lon="7.20175">
        <ele>472.54</ele>
        <time>2020-06-25T13:33:57.337Z</time>
      </trkpt>
      <trkpt lat="46.17531" lon="7.20161">
        <ele>472.61</ele>
        <time>2020-06-25T13:34:11.055Z</time>
      </trkpt>
      <trkpt lat="46.17528" lon="7.20155">
        <ele>472.77</ele>
        <time>2020-06-25T13:34:17.477Z</time>
      </trkpt>
      <trkpt lat="46.17521" lon="7.20144">
        <ele>472.77</ele>
        <time>2020-06-25T13:34:26.733Z</time>
      </trkpt>
      <trkpt lat="46.17517" lon="7.20139">
        <ele>472.46</ele>
        <time>2020-06-25T13:34:27.811Z</time>
      </trkpt>
      <trkpt lat="46.17523" lon="7.20134">
        <ele>471.72</ele>
        <time>2020-06-25T13:34:29.258Z</time>
      </trkpt>
      <trkpt lat="46.17531" lon="7.2013">
        <ele>470.92</ele>
        <time>2020-06-25T13:34:31.026Z</time>
      </trkpt>
      <trkpt lat="46.17543" lon="7.20124">
        <ele>469.8</ele>
        <time>2020-06-25T13:34:33.678Z</time>
      </trkpt>
      <trkpt lat="46.17558" lon="7.20115">
        <ele>469.58</ele>
        <time>2020-06-25T13:34:38.880Z</time>
      </trkpt>
      <trkpt lat="46.17562" lon="7.20113">
        <ele>469.42</ele>
        <time>2020-06-25T13:34:39.917Z</time>
      </trkpt>
      <trkpt lat="46.17579" lon="7.20101">
        <ele>469.57</ele>
        <time>2020-06-25T13:34:58.172Z</time>
      </trkpt>
      <trkpt lat="46.17585" lon="7.20097">
        <ele>469.6</ele>
        <time>2020-06-25T13:35:04.341Z</time>
      </trkpt>
      <trkpt lat="46.17592" lon="7.20089">
        <ele>469.57</ele>
        <time>2020-06-25T13:35:11.937Z</time>
      </trkpt>
      <trkpt lat="46.17599" lon="7.20081">
        <ele>469.86</ele>
        <time>2020-06-25T13:35:23.307Z</time>
      </trkpt>
      <trkpt lat="46.17606" lon="7.2007">
        <ele>470.1</ele>
        <time>2020-06-25T13:35:35.061Z</time>
      </trkpt>
      <trkpt lat="46.17609" lon="7.20064">
        <ele>470.34</ele>
        <time>2020-06-25T13:35:42.915Z</time>
      </trkpt>
      <trkpt lat="46.17611" lon="7.20059">
        <ele>470.58</ele>
        <time>2020-06-25T13:35:49.610Z</time>
      </trkpt>
      <trkpt lat="46.17617" lon="7.20046">
        <ele>470.7</ele>
        <time>2020-06-25T13:36:00.384Z</time>
      </trkpt>
      <trkpt lat="46.17625" lon="7.20024">
        <ele>471.1</ele>
        <time>2020-06-25T13:36:19.944Z</time>
      </trkpt>
      <trkpt lat="46.17633" lon="7.20004">
        <ele>471.23</ele>
        <time>2020-06-25T13:36:35.404Z</time>
      </trkpt>
      <trkpt lat="46.17638" lon="7.19988">
        <ele>471.77</ele>
        <time>2020-06-25T13:36:53.742Z</time>
      </trkpt>
      <trkpt lat="46.17624" lon="7.19963">
        <ele>471.07</ele>
        <time>2020-06-25T13:36:59.553Z</time>
      </trkpt>
      <trkpt lat="46.17607" lon="7.19932">
        <ele>470.52</ele>
        <time>2020-06-25T13:37:07.651Z</time>
      </trkpt>
      <trkpt lat="46.17594" lon="7.19909">
        <ele>470.15</ele>
        <time>2020-06-25T13:37:13.883Z</time>
      </trkpt>
      <trkpt lat="46.1757" lon="7.19863">
        <ele>468.93</ele>
        <time>2020-06-25T13:37:24.385Z</time>
      </trkpt>
      <trkpt lat="46.17537" lon="7.19802">
        <ele>467.96</ele>
        <time>2020-06-25T13:37:40.616Z</time>
      </trkpt>
      <trkpt lat="46.17522" lon="7.19776">
        <ele>468.16</ele>
        <time>2020-06-25T13:38:03.360Z</time>
      </trkpt>
      <trkpt lat="46.17499" lon="7.19734">
        <ele>467.96</ele>
        <time>2020-06-25T13:38:34.002Z</time>
      </trkpt>
      <trkpt lat="46.17484" lon="7.19707">
        <ele>467.9</ele>
        <time>2020-06-25T13:38:54.656Z</time>
      </trkpt>
      <trkpt lat="46.17477" lon="7.19695">
        <ele>467.87</ele>
        <time>2020-06-25T13:39:03.983Z</time>
      </trkpt>
    </trkseg>
  </trk>
</gpx>